»·PEaware :: PSV130 KJAC-KEGE

PSV130 :: KJAC-KEGE

FLIGHT INFORMATION

Flight Status: Arrived
Operator:
Power Set Virtual (website)
More flights by this operator :: More flights under this callsign
Pilot: David J. (24489)
Aircraft: DASSAULT AVIATION FALCON 50
(FA50)
More flights by this aircraft type
Origin: KJAC Jackson Hole
United States
Destination: KEGE Eagle Co Regl
United States
More flights between these airports :: More routes between these airports
Route: +ALPIN2 KICNE OCS EKR RLG
File this flight plan on PilotEdge
Remarks: RMK / SIMBRIEF
Altitude:
(Current/Filed)
39,000ft
Speed:
(Current/Filed)
451kts
Departed: 10-May-20 05:47 PM
Arrived: 10-May-20 06:41 PM
Distance/Time
Traveled:
293nm/0:54
Distance/Time
To Go:
Arrived

Flight Plot

Page will automatically refresh every two minutes.


Map Options




Map Legend


Flown Route
Filed Route
Departure Airport
Arrival Airport
Navaid (VOR, NDB)
Fix

Horizontal Profiles

Position Reports

Time Latitude Longitude Heading Altitude Ground
Speed
10-May-20 17:21 43.604255 -110.736684 109 6454ft 0kts
10-May-20 17:22 43.604255 -110.736684 109 6454ft 0kts
10-May-20 17:23 43.603870 -110.736872 109 6454ft 0kts
10-May-20 17:24 43.603870 -110.736872 109 6454ft 0kts
10-May-20 17:25 43.603870 -110.736872 109 6454ft 0kts
10-May-20 17:26 43.603870 -110.736872 109 6454ft 0kts
10-May-20 17:27 43.603870 -110.736872 109 6454ft 0kts
10-May-20 17:28 43.603870 -110.736872 109 6454ft 0kts
10-May-20 17:29 43.603870 -110.736872 109 6454ft 0kts
10-May-20 17:30 43.603870 -110.736872 109 6454ft 0kts
10-May-20 17:31 43.603870 -110.736872 109 6454ft 0kts
10-May-20 17:32 43.603870 -110.736872 109 6455ft 0kts
10-May-20 17:33 43.603870 -110.736872 109 6455ft 0kts
10-May-20 17:34 43.603869 -110.736870 109 6455ft 0kts
10-May-20 17:35 43.603906 -110.737014 108 6455ft 0kts
10-May-20 17:36 43.603787 -110.737058 269 6455ft 0kts
10-May-20 17:37 43.606219 -110.736677 17 6455ft 18kts
10-May-20 17:38 43.611865 -110.733969 19 6455ft 24kts
10-May-20 17:39 43.615027 -110.732591 309 6455ft 0kts
10-May-20 17:41 43.615028 -110.732593 309 6455ft 0kts
10-May-20 17:42 43.615030 -110.732596 309 6455ft 0kts
10-May-20 17:43 43.615031 -110.732598 309 6455ft 0kts
10-May-20 17:44 43.615033 -110.732601 309 6455ft 0kts
10-May-20 17:45 43.615039 -110.732612 307 6455ft 1kts
10-May-20 17:46 43.615121 -110.733979 196 6455ft 0kts
10-May-20 17:47 43.604113 -110.739327 200 6470ft 147kts
10-May-20 17:48 43.553730 -110.771077 209 8945ft 261kts
10-May-20 17:49 43.489993 -110.814120 208 12682ft 275kts
10-May-20 17:50 43.411143 -110.865076 208 15047ft 366kts
10-May-20 17:51 43.310499 -110.929490 209 18602ft 404kts
10-May-20 17:52 43.201603 -110.943142 168 23702ft 401kts
10-May-20 17:53 43.110944 -110.847203 142 26407ft 435kts
10-May-20 17:54 43.017195 -110.734645 141 28289ft 457kts
10-May-20 17:55 42.921719 -110.617014 141 30145ft 466kts
10-May-20 17:56 42.825008 -110.497572 141 31653ft 473kts
10-May-20 17:57 42.726852 -110.376745 141 32899ft 479kts
10-May-20 17:58 42.627242 -110.254657 141 33907ft 485kts
10-May-20 17:59 42.526580 -110.131833 141 34740ft 489kts
10-May-20 17:59 42.441618 -110.028596 141 35348ft 492kts
10-May-20 18:01 42.321744 -109.883612 141 36003ft 497kts
10-May-20 18:02 42.218388 -109.759221 141 36418ft 499kts
10-May-20 18:02 42.132160 -109.655864 141 36934ft 495kts
10-May-20 18:03 42.029863 -109.533760 142 37925ft 486kts
10-May-20 18:04 41.929376 -109.414360 142 38909ft 478kts
10-May-20 18:05 41.828798 -109.295431 142 39172ft 488kts
10-May-20 18:06 41.725558 -109.173849 142 39169ft 498kts
10-May-20 18:07 41.620708 -109.051449 144 39170ft 501kts
10-May-20 18:08 41.504220 -108.951604 156 39170ft 496kts
10-May-20 18:09 41.382926 -108.863323 156 39163ft 497kts
10-May-20 18:10 41.261542 -108.774995 156 39153ft 498kts
10-May-20 18:11 41.139549 -108.686536 156 39153ft 498kts
10-May-20 18:12 41.017581 -108.598464 156 39145ft 499kts
10-May-20 18:13 40.895454 -108.510646 156 39134ft 499kts
10-May-20 18:14 40.773398 -108.423252 156 39134ft 499kts
10-May-20 18:15 40.651267 -108.336173 156 39122ft 500kts
10-May-20 18:16 40.532545 -108.251788 156 37489ft 467kts
10-May-20 18:17 40.420975 -108.172916 156 35782ft 453kts
10-May-20 18:18 40.302248 -108.089481 155 34106ft 513kts
10-May-20 18:19 40.181133 -108.004267 156 31856ft 460kts
10-May-20 18:20 40.091037 -107.895475 123 29266ft 438kts
10-May-20 18:21 40.061775 -107.745912 87 26675ft 433kts
10-May-20 18:22 40.054765 -107.578580 91 24613ft 480kts
10-May-20 18:23 40.046805 -107.401260 91 24186ft 490kts
10-May-20 18:24 40.040041 -107.245170 90 24212ft 405kts
10-May-20 18:25 40.072896 -107.113966 25 24229ft 393kts
10-May-20 18:26 40.171057 -107.132266 325 24217ft 376kts
10-May-20 18:27 40.256778 -107.101008 59 24176ft 375kts
10-May-20 18:28 40.251727 -106.956085 111 24196ft 445kts
10-May-20 18:29 40.181303 -106.809985 124 24211ft 501kts
10-May-20 18:30 40.105919 -106.656848 123 22966ft 479kts
10-May-20 18:31 40.031365 -106.519381 142 19881ft 436kts
10-May-20 18:32 39.929149 -106.478341 188 17650ft 370kts
10-May-20 18:33 39.830737 -106.516896 200 15457ft 352kts
10-May-20 18:34 39.746729 -106.550479 201 14097ft 303kts
10-May-20 18:35 39.686852 -106.614161 263 13911ft 293kts
10-May-20 18:36 39.668400 -106.718404 256 11547ft 293kts
10-May-20 18:37 39.655387 -106.804471 266 8459ft 171kts
10-May-20 18:38 39.648701 -106.858009 276 7388ft 139kts
10-May-20 18:39 39.643677 -106.906507 269 6520ft 109kts
10-May-20 18:40 39.641865 -106.915634 152 6519ft 0kts
10-May-20 18:41 39.641954 -106.913496 82 6519ft 5kts
10-May-20 18:42 39.642232 -106.910733 87 6519ft 9kts
10-May-20 18:43 39.642610 -106.906946 88 6519ft 9kts
10-May-20 18:44 39.642465 -106.906316 151 6519ft 0kts
10-May-20 18:45 39.641873 -106.907639 126 6519ft 4kts
10-May-20 18:46 39.641443 -106.907688 262 6519ft 0kts
10-May-20 18:47 39.641443 -106.907691 262 6519ft 0kts
10-May-20 18:48 39.641443 -106.907692 262 6519ft 0kts
10-May-20 18:49 39.641443 -106.907692 262 6519ft 0kts
10-May-20 18:50 39.641443 -106.907692 262 6519ft 0kts
10-May-20 18:51 39.641443 -106.907692 262 6519ft 0kts
10-May-20 18:52 39.641443 -106.907692 262 6519ft 0kts

Navigation Log

Ident Type
Flight plan parsing failed, navigation log unavailable